sensor_id;sensor_type;location;lat;lon;timestamp;P1;durP1;ratioP1;P2;durP2;ratioP2
35576;SDS011;21680;52.400;16.920;2023-11-25T00:00:47;6.00;;;2.80;;
35576;SDS011;21680;52.400;16.920;2023-11-25T00:03:14;4.60;;;2.10;;
35576;SDS011;21680;52.400;16.920;2023-11-25T00:05:40;5.60;;;2.70;;
35576;SDS011;21680;52.400;16.920;2023-11-25T00:08:06;5.70;;;3.10;;
35576;SDS011;21680;52.400;16.920;2023-11-25T00:10:32;4.30;;;2.50;;
35576;SDS011;21680;52.400;16.920;2023-11-25T00:12:59;7.90;;;3.00;;
35576;SDS011;21680;52.400;16.920;2023-11-25T00:15:26;8.80;;;3.10;;
35576;SDS011;21680;52.400;16.920;2023-11-25T00:17:52;6.90;;;3.50;;
35576;SDS011;21680;52.400;16.920;2023-11-25T00:20:18;12.60;;;3.70;;
35576;SDS011;21680;52.400;16.920;2023-11-25T00:22:44;6.20;;;3.20;;
35576;SDS011;21680;52.400;16.920;2023-11-25T00:25:10;6.60;;;3.10;;
35576;SDS011;21680;52.400;16.920;2023-11-25T00:27:37;7.50;;;3.30;;
35576;SDS011;21680;52.400;16.920;2023-11-25T00:30:03;9.10;;;4.00;;
35576;SDS011;21680;52.400;16.920;2023-11-25T00:32:30;7.30;;;4.00;;
35576;SDS011;21680;52.400;16.920;2023-11-25T00:34:56;7.60;;;3.90;;
35576;SDS011;21680;52.400;16.920;2023-11-25T00:37:21;10.60;;;4.10;;
35576;SDS011;21680;52.400;16.920;2023-11-25T00:39:47;10.20;;;4.80;;
35576;SDS011;21680;52.400;16.920;2023-11-25T00:42:12;10.20;;;4.80;;
35576;SDS011;21680;52.400;16.920;2023-11-25T00:44:39;9.10;;;4.50;;
35576;SDS011;21680;52.400;16.920;2023-11-25T00:47:04;10.10;;;5.40;;
35576;SDS011;21680;52.400;16.920;2023-11-25T00:49:39;15.30;;;4.80;;
35576;SDS011;21680;52.400;16.920;2023-11-25T00:52:06;13.20;;;5.20;;
35576;SDS011;21680;52.400;16.920;2023-11-25T00:54:32;11.80;;;5.10;;
35576;SDS011;21680;52.400;16.920;2023-11-25T00:56:59;10.60;;;4.50;;
35576;SDS011;21680;52.400;16.920;2023-11-25T00:59:26;12.80;;;5.40;;
35576;SDS011;21680;52.400;16.920;2023-11-25T01:01:52;10.30;;;4.70;;
35576;SDS011;21680;52.400;16.920;2023-11-25T01:04:18;12.60;;;5.10;;
35576;SDS011;21680;52.400;16.920;2023-11-25T01:06:46;8.20;;;4.90;;
35576;SDS011;21680;52.400;16.920;2023-11-25T01:09:12;12.10;;;4.70;;
35576;SDS011;21680;52.400;16.920;2023-11-25T01:11:44;11.40;;;5.30;;
35576;SDS011;21680;52.400;16.920;2023-11-25T01:14:11;11.30;;;5.00;;
35576;SDS011;21680;52.400;16.920;2023-11-25T01:16:37;12.20;;;5.50;;
35576;SDS011;21680;52.400;16.920;2023-11-25T01:19:04;12.70;;;4.50;;
35576;SDS011;21680;52.400;16.920;2023-11-25T01:21:29;10.40;;;4.40;;
35576;SDS011;21680;52.400;16.920;2023-11-25T01:23:54;10.00;;;4.60;;
35576;SDS011;21680;52.400;16.920;2023-11-25T01:26:20;7.60;;;4.10;;
35576;SDS011;21680;52.400;16.920;2023-11-25T01:28:47;9.90;;;4.90;;
35576;SDS011;21680;52.400;16.920;2023-11-25T01:31:12;9.80;;;4.20;;
35576;SDS011;21680;52.400;16.920;2023-11-25T01:33:39;8.40;;;4.70;;
35576;SDS011;21680;52.400;16.920;2023-11-25T01:36:06;9.20;;;4.40;;
35576;SDS011;21680;52.400;16.920;2023-11-25T01:38:37;9.00;;;4.10;;
35576;SDS011;21680;52.400;16.920;2023-11-25T01:41:06;7.80;;;4.00;;
35576;SDS011;21680;52.400;16.920;2023-11-25T01:43:32;9.10;;;3.90;;
35576;SDS011;21680;52.400;16.920;2023-11-25T01:45:57;10.10;;;4.40;;
35576;SDS011;21680;52.400;16.920;2023-11-25T01:48:25;6.30;;;3.80;;
35576;SDS011;21680;52.400;16.920;2023-11-25T01:50:53;10.00;;;4.30;;
35576;SDS011;21680;52.400;16.920;2023-11-25T01:53:19;10.10;;;5.10;;
35576;SDS011;21680;52.400;16.920;2023-11-25T01:55:46;7.00;;;4.00;;
35576;SDS011;21680;52.400;16.920;2023-11-25T01:58:15;9.60;;;4.20;;
35576;SDS011;21680;52.400;16.920;2023-11-25T02:00:45;9.60;;;4.00;;
35576;SDS011;21680;52.400;16.920;2023-11-25T02:03:15;8.40;;;4.00;;
35576;SDS011;21680;52.400;16.920;2023-11-25T02:05:43;9.10;;;3.40;;
35576;SDS011;21680;52.400;16.920;2023-11-25T02:08:09;7.30;;;4.10;;
35576;SDS011;21680;52.400;16.920;2023-11-25T02:10:35;8.60;;;4.00;;
35576;SDS011;21680;52.400;16.920;2023-11-25T02:13:02;7.50;;;3.70;;
35576;SDS011;21680;52.400;16.920;2023-11-25T02:15:29;5.60;;;3.30;;
35576;SDS011;21680;52.400;16.920;2023-11-25T02:17:55;10.40;;;3.40;;
35576;SDS011;21680;52.400;16.920;2023-11-25T02:20:34;7.70;;;4.20;;
35576;SDS011;21680;52.400;16.920;2023-11-25T02:23:01;11.20;;;4.20;;
35576;SDS011;21680;52.400;16.920;2023-11-25T02:25:27;8.90;;;3.70;;
35576;SDS011;21680;52.400;16.920;2023-11-25T02:27:53;8.40;;;4.10;;
35576;SDS011;21680;52.400;16.920;2023-11-25T02:30:18;7.80;;;3.40;;
35576;SDS011;21680;52.400;16.920;2023-11-25T02:32:44;5.60;;;3.60;;
35576;SDS011;21680;52.400;16.920;2023-11-25T02:35:10;8.40;;;3.60;;
35576;SDS011;21680;52.400;16.920;2023-11-25T02:37:37;10.30;;;4.10;;
35576;SDS011;21680;52.400;16.920;2023-11-25T02:40:03;8.40;;;3.80;;
35576;SDS011;21680;52.400;16.920;2023-11-25T02:42:29;8.90;;;3.50;;
35576;SDS011;21680;52.400;16.920;2023-11-25T02:44:55;5.80;;;3.80;;
35576;SDS011;21680;52.400;16.920;2023-11-25T02:47:21;6.70;;;3.90;;
35576;SDS011;21680;52.400;16.920;2023-11-25T02:49:47;6.30;;;3.60;;
35576;SDS011;21680;52.400;16.920;2023-11-25T02:52:12;7.20;;;3.70;;
35576;SDS011;21680;52.400;16.920;2023-11-25T02:54:38;9.10;;;3.70;;
35576;SDS011;21680;52.400;16.920;2023-11-25T02:57:04;8.80;;;3.50;;
35576;SDS011;21680;52.400;16.920;2023-11-25T02:59:32;8.10;;;3.70;;
35576;SDS011;21680;52.400;16.920;2023-11-25T03:01:59;5.80;;;2.90;;
35576;SDS011;21680;52.400;16.920;2023-11-25T03:04:34;8.80;;;2.90;;
35576;SDS011;21680;52.400;16.920;2023-11-25T03:07:02;8.10;;;2.90;;
35576;SDS011;21680;52.400;16.920;2023-11-25T03:09:29;6.50;;;3.20;;
35576;SDS011;21680;52.400;16.920;2023-11-25T03:11:55;6.90;;;3.30;;
35576;SDS011;21680;52.400;16.920;2023-11-25T03:14:20;7.30;;;3.20;;
35576;SDS011;21680;52.400;16.920;2023-11-25T03:16:46;4.80;;;3.00;;
35576;SDS011;21680;52.400;16.920;2023-11-25T03:19:11;9.90;;;2.60;;
35576;SDS011;21680;52.400;16.920;2023-11-25T03:21:38;5.60;;;3.00;;
35576;SDS011;21680;52.400;16.920;2023-11-25T03:24:04;4.60;;;2.30;;
35576;SDS011;21680;52.400;16.920;2023-11-25T03:26:32;5.70;;;2.50;;
35576;SDS011;21680;52.400;16.920;2023-11-25T03:28:58;7.00;;;2.20;;
35576;SDS011;21680;52.400;16.920;2023-11-25T03:31:23;5.20;;;2.40;;
35576;SDS011;21680;52.400;16.920;2023-11-25T03:33:49;7.80;;;2.60;;
35576;SDS011;21680;52.400;16.920;2023-11-25T03:36:15;7.10;;;2.70;;
35576;SDS011;21680;52.400;16.920;2023-11-25T03:38:41;3.00;;;1.60;;
35576;SDS011;21680;52.400;16.920;2023-11-25T03:41:06;4.10;;;2.10;;
35576;SDS011;21680;52.400;16.920;2023-11-25T03:43:33;4.60;;;2.10;;
35576;SDS011;21680;52.400;16.920;2023-11-25T03:45:59;8.70;;;2.00;;
35576;SDS011;21680;52.400;16.920;2023-11-25T03:48:25;7.10;;;2.00;;
35576;SDS011;21680;52.400;16.920;2023-11-25T03:50:50;3.70;;;1.50;;
35576;SDS011;21680;52.400;16.920;2023-11-25T03:53:15;4.40;;;1.80;;
35576;SDS011;21680;52.400;16.920;2023-11-25T03:55:41;3.80;;;2.00;;
35576;SDS011;21680;52.400;16.920;2023-11-25T03:58:06;5.00;;;1.70;;
35576;SDS011;21680;52.400;16.920;2023-11-25T04:00:32;6.20;;;1.80;;
35576;SDS011;21680;52.400;16.920;2023-11-25T04:02:59;4.30;;;1.60;;
35576;SDS011;21680;52.400;16.920;2023-11-25T04:05:24;5.80;;;2.30;;
35576;SDS011;21680;52.400;16.920;2023-11-25T04:07:50;6.40;;;1.90;;
35576;SDS011;21680;52.400;16.920;2023-11-25T04:10:18;3.60;;;1.60;;
35576;SDS011;21680;52.400;16.920;2023-11-25T04:12:44;4.00;;;1.70;;
35576;SDS011;21680;52.400;16.920;2023-11-25T04:15:11;7.00;;;1.70;;
35576;SDS011;21680;52.400;16.920;2023-11-25T04:17:39;6.40;;;1.90;;
35576;SDS011;21680;52.400;16.920;2023-11-25T04:20:06;5.00;;;1.70;;
35576;SDS011;21680;52.400;16.920;2023-11-25T04:22:39;4.60;;;1.80;;
35576;SDS011;21680;52.400;16.920;2023-11-25T04:25:06;4.20;;;1.90;;
35576;SDS011;21680;52.400;16.920;2023-11-25T04:27:32;5.30;;;1.70;;
35576;SDS011;21680;52.400;16.920;2023-11-25T04:29:58;9.90;;;2.10;;
35576;SDS011;21680;52.400;16.920;2023-11-25T04:32:24;5.70;;;1.50;;
35576;SDS011;21680;52.400;16.920;2023-11-25T04:34:50;4.20;;;2.10;;
35576;SDS011;21680;52.400;16.920;2023-11-25T04:37:15;5.10;;;1.80;;
35576;SDS011;21680;52.400;16.920;2023-11-25T04:39:41;6.40;;;1.70;;
35576;SDS011;21680;52.400;16.920;2023-11-25T04:42:07;7.80;;;2.30;;
35576;SDS011;21680;52.400;16.920;2023-11-25T04:44:33;4.90;;;1.70;;
35576;SDS011;21680;52.400;16.920;2023-11-25T04:46:59;8.10;;;2.20;;
35576;SDS011;21680;52.400;16.920;2023-11-25T04:49:24;4.80;;;2.00;;
35576;SDS011;21680;52.400;16.920;2023-11-25T04:51:49;4.50;;;1.80;;
35576;SDS011;21680;52.400;16.920;2023-11-25T04:54:15;5.20;;;1.90;;
35576;SDS011;21680;52.400;16.920;2023-11-25T04:56:40;3.60;;;1.70;;
35576;SDS011;21680;52.400;16.920;2023-11-25T04:59:06;2.80;;;1.70;;
35576;SDS011;21680;52.400;16.920;2023-11-25T05:01:32;6.10;;;1.80;;
35576;SDS011;21680;52.400;16.920;2023-11-25T05:03:58;3.20;;;1.80;;
35576;SDS011;21680;52.400;16.920;2023-11-25T05:06:24;4.40;;;2.00;;
35576;SDS011;21680;52.400;16.920;2023-11-25T05:08:49;3.40;;;1.90;;
35576;SDS011;21680;52.400;16.920;2023-11-25T05:11:14;3.10;;;2.00;;
35576;SDS011;21680;52.400;16.920;2023-11-25T05:13:40;4.60;;;1.70;;
35576;SDS011;21680;52.400;16.920;2023-11-25T05:16:06;5.80;;;2.00;;
35576;SDS011;21680;52.400;16.920;2023-11-25T05:18:31;6.70;;;2.30;;
35576;SDS011;21680;52.400;16.920;2023-11-25T05:20:57;3.30;;;1.50;;
35576;SDS011;21680;52.400;16.920;2023-11-25T05:23:22;5.50;;;2.00;;
35576;SDS011;21680;52.400;16.920;2023-11-25T05:25:47;3.50;;;2.10;;
35576;SDS011;21680;52.400;16.920;2023-11-25T05:28:13;2.80;;;2.30;;
35576;SDS011;21680;52.400;16.920;2023-11-25T05:30:38;6.20;;;2.30;;
35576;SDS011;21680;52.400;16.920;2023-11-25T05:33:03;5.80;;;2.30;;
35576;SDS011;21680;52.400;16.920;2023-11-25T05:35:29;8.10;;;2.50;;
35576;SDS011;21680;52.400;16.920;2023-11-25T05:37:54;7.30;;;2.40;;
35576;SDS011;21680;52.400;16.920;2023-11-25T05:40:19;8.50;;;2.60;;
35576;SDS011;21680;52.400;16.920;2023-11-25T05:42:45;5.10;;;2.10;;
35576;SDS011;21680;52.400;16.920;2023-11-25T05:45:18;3.80;;;2.70;;
35576;SDS011;21680;52.400;16.920;2023-11-25T05:47:45;4.90;;;2.40;;
35576;SDS011;21680;52.400;16.920;2023-11-25T05:50:12;4.70;;;2.10;;
35576;SDS011;21680;52.400;16.920;2023-11-25T05:52:37;5.10;;;2.00;;
35576;SDS011;21680;52.400;16.920;2023-11-25T05:55:02;6.60;;;2.80;;
35576;SDS011;21680;52.400;16.920;2023-11-25T05:57:28;4.20;;;2.20;;
35576;SDS011;21680;52.400;16.920;2023-11-25T05:59:53;3.80;;;2.00;;
35576;SDS011;21680;52.400;16.920;2023-11-25T06:02:19;4.00;;;2.30;;
35576;SDS011;21680;52.400;16.920;2023-11-25T06:04:44;4.20;;;1.60;;
35576;SDS011;21680;52.400;16.920;2023-11-25T06:07:09;6.00;;;2.00;;
35576;SDS011;21680;52.400;16.920;2023-11-25T06:09:35;2.80;;;1.60;;
35576;SDS011;21680;52.400;16.920;2023-11-25T06:12:00;4.70;;;1.70;;
35576;SDS011;21680;52.400;16.920;2023-11-25T06:14:25;3.60;;;1.60;;
35576;SDS011;21680;52.400;16.920;2023-11-25T06:16:51;1.90;;;1.40;;
35576;SDS011;21680;52.400;16.920;2023-11-25T06:19:18;4.70;;;1.60;;
35576;SDS011;21680;52.400;16.920;2023-11-25T06:21:45;6.00;;;1.60;;
35576;SDS011;21680;52.400;16.920;2023-11-25T06:24:15;4.00;;;1.60;;
35576;SDS011;21680;52.400;16.920;2023-11-25T06:26:41;3.90;;;1.70;;
35576;SDS011;21680;52.400;16.920;2023-11-25T06:29:07;2.00;;;1.40;;
35576;SDS011;21680;52.400;16.920;2023-11-25T06:31:32;2.90;;;1.40;;
35576;SDS011;21680;52.400;16.920;2023-11-25T06:34:00;5.30;;;2.00;;
35576;SDS011;21680;52.400;16.920;2023-11-25T06:36:26;7.30;;;2.40;;
35576;SDS011;21680;52.400;16.920;2023-11-25T06:38:52;4.10;;;2.00;;
35576;SDS011;21680;52.400;16.920;2023-11-25T06:41:17;4.20;;;1.50;;
35576;SDS011;21680;52.400;16.920;2023-11-25T06:43:46;3.10;;;1.80;;
35576;SDS011;21680;52.400;16.920;2023-11-25T06:46:12;3.40;;;1.60;;
35576;SDS011;21680;52.400;16.920;2023-11-25T06:48:39;2.60;;;1.30;;
35576;SDS011;21680;52.400;16.920;2023-11-25T06:51:04;3.20;;;1.70;;
35576;SDS011;21680;52.400;16.920;2023-11-25T06:53:30;2.70;;;1.70;;
35576;SDS011;21680;52.400;16.920;2023-11-25T06:55:57;9.80;;;1.80;;
35576;SDS011;21680;52.400;16.920;2023-11-25T06:58:23;2.20;;;1.80;;
35576;SDS011;21680;52.400;16.920;2023-11-25T07:00:50;2.70;;;1.50;;
35576;SDS011;21680;52.400;16.920;2023-11-25T07:03:16;2.20;;;1.40;;
35576;SDS011;21680;52.400;16.920;2023-11-25T07:05:41;9.70;;;1.50;;
35576;SDS011;21680;52.400;16.920;2023-11-25T07:08:07;2.80;;;1.50;;
35576;SDS011;21680;52.400;16.920;2023-11-25T07:10:32;6.30;;;1.40;;
35576;SDS011;21680;52.400;16.920;2023-11-25T07:13:00;1.60;;;1.20;;
35576;SDS011;21680;52.400;16.920;2023-11-25T07:15:33;3.20;;;1.70;;
35576;SDS011;21680;52.400;16.920;2023-11-25T07:18:00;2.00;;;1.40;;
35576;SDS011;21680;52.400;16.920;2023-11-25T07:20:31;2.20;;;1.30;;
35576;SDS011;21680;52.400;16.920;2023-11-25T07:22:57;1.70;;;1.20;;
35576;SDS011;21680;52.400;16.920;2023-11-25T07:25:22;1.70;;;1.50;;
35576;SDS011;21680;52.400;16.920;2023-11-25T07:27:48;3.00;;;1.90;;
35576;SDS011;21680;52.400;16.920;2023-11-25T07:30:14;2.00;;;1.50;;
35576;SDS011;21680;52.400;16.920;2023-11-25T07:32:40;2.30;;;1.50;;
35576;SDS011;21680;52.400;16.920;2023-11-25T07:35:07;4.20;;;1.70;;
35576;SDS011;21680;52.400;16.920;2023-11-25T07:37:34;2.90;;;1.90;;
35576;SDS011;21680;52.400;16.920;2023-11-25T07:40:01;3.90;;;1.90;;
35576;SDS011;21680;52.400;16.920;2023-11-25T07:42:27;3.80;;;1.80;;
35576;SDS011;21680;52.400;16.920;2023-11-25T07:44:52;3.20;;;1.90;;
35576;SDS011;21680;52.400;16.920;2023-11-25T07:47:18;6.40;;;2.40;;
35576;SDS011;21680;52.400;16.920;2023-11-25T07:49:44;3.90;;;1.70;;
35576;SDS011;21680;52.400;16.920;2023-11-25T07:52:09;2.70;;;1.70;;
35576;SDS011;21680;52.400;16.920;2023-11-25T07:54:34;5.50;;;2.00;;
35576;SDS011;21680;52.400;16.920;2023-11-25T07:57:00;3.10;;;1.50;;
35576;SDS011;21680;52.400;16.920;2023-11-25T07:59:25;3.40;;;1.40;;
35576;SDS011;21680;52.400;16.920;2023-11-25T08:01:51;8.40;;;1.80;;
35576;SDS011;21680;52.400;16.920;2023-11-25T08:04:18;3.50;;;1.70;;
35576;SDS011;21680;52.400;16.920;2023-11-25T08:06:45;6.00;;;1.90;;
35576;SDS011;21680;52.400;16.920;2023-11-25T08:09:11;4.90;;;1.60;;
35576;SDS011;21680;52.400;16.920;2023-11-25T08:11:37;4.00;;;1.80;;
35576;SDS011;21680;52.400;16.920;2023-11-25T08:14:02;5.70;;;2.10;;
35576;SDS011;21680;52.400;16.920;2023-11-25T08:16:29;3.90;;;1.50;;
35576;SDS011;21680;52.400;16.920;2023-11-25T08:18:55;5.30;;;1.40;;
35576;SDS011;21680;52.400;16.920;2023-11-25T08:21:21;3.40;;;1.40;;
35576;SDS011;21680;52.400;16.920;2023-11-25T08:23:48;4.70;;;1.60;;
35576;SDS011;21680;52.400;16.920;2023-11-25T08:26:23;3.50;;;1.50;;
35576;SDS011;21680;52.400;16.920;2023-11-25T08:28:54;3.30;;;1.60;;
35576;SDS011;21680;52.400;16.920;2023-11-25T08:31:19;3.40;;;1.70;;
35576;SDS011;21680;52.400;16.920;2023-11-25T08:33:46;7.10;;;1.80;;
35576;SDS011;21680;52.400;16.920;2023-11-25T08:36:14;3.20;;;1.90;;
35576;SDS011;21680;52.400;16.920;2023-11-25T08:38:40;2.80;;;1.50;;
35576;SDS011;21680;52.400;16.920;2023-11-25T08:41:06;6.70;;;1.80;;
35576;SDS011;21680;52.400;16.920;2023-11-25T08:43:39;4.30;;;1.30;;
35576;SDS011;21680;52.400;16.920;2023-11-25T08:46:08;2.00;;;1.20;;
35576;SDS011;21680;52.400;16.920;2023-11-25T08:48:34;2.60;;;1.60;;
35576;SDS011;21680;52.400;16.920;2023-11-25T08:51:00;4.60;;;1.70;;
35576;SDS011;21680;52.400;16.920;2023-11-25T08:53:25;7.30;;;1.60;;
35576;SDS011;21680;52.400;16.920;2023-11-25T08:55:52;4.40;;;1.30;;
35576;SDS011;21680;52.400;16.920;2023-11-25T08:58:20;5.10;;;1.40;;
35576;SDS011;21680;52.400;16.920;2023-11-25T09:00:47;3.60;;;1.70;;
35576;SDS011;21680;52.400;16.920;2023-11-25T09:03:16;2.70;;;1.70;;
35576;SDS011;21680;52.400;16.920;2023-11-25T09:05:45;4.40;;;1.70;;
35576;SDS011;21680;52.400;16.920;2023-11-25T09:08:12;7.80;;;1.90;;
35576;SDS011;21680;52.400;16.920;2023-11-25T09:10:39;3.10;;;1.40;;
35576;SDS011;21680;52.400;16.920;2023-11-25T09:13:04;2.70;;;1.20;;
35576;SDS011;21680;52.400;16.920;2023-11-25T09:15:30;3.40;;;1.80;;
35576;SDS011;21680;52.400;16.920;2023-11-25T09:17:55;4.40;;;1.70;;
35576;SDS011;21680;52.400;16.920;2023-11-25T09:20:21;3.30;;;1.70;;
35576;SDS011;21680;52.400;16.920;2023-11-25T09:22:47;8.50;;;1.50;;
35576;SDS011;21680;52.400;16.920;2023-11-25T09:25:13;8.20;;;2.40;;
35576;SDS011;21680;52.400;16.920;2023-11-25T09:27:42;5.20;;;2.00;;
35576;SDS011;21680;52.400;16.920;2023-11-25T09:30:11;5.50;;;2.00;;
35576;SDS011;21680;52.400;16.920;2023-11-25T09:32:38;12.70;;;2.20;;
35576;SDS011;21680;52.400;16.920;2023-11-25T09:35:04;6.50;;;1.80;;
35576;SDS011;21680;52.400;16.920;2023-11-25T09:37:32;5.60;;;1.40;;
35576;SDS011;21680;52.400;16.920;2023-11-25T09:39:57;6.80;;;2.00;;
35576;SDS011;21680;52.400;16.920;2023-11-25T09:42:23;3.60;;;1.70;;
35576;SDS011;21680;52.400;16.920;2023-11-25T09:44:48;7.40;;;2.10;;
35576;SDS011;21680;52.400;16.920;2023-11-25T09:47:14;5.10;;;1.70;;
35576;SDS011;21680;52.400;16.920;2023-11-25T09:49:40;3.90;;;1.80;;
35576;SDS011;21680;52.400;16.920;2023-11-25T09:52:05;6.60;;;1.60;;
35576;SDS011;21680;52.400;16.920;2023-11-25T09:54:34;3.30;;;1.50;;
35576;SDS011;21680;52.400;16.920;2023-11-25T09:56:59;4.20;;;1.30;;
35576;SDS011;21680;52.400;16.920;2023-11-25T09:59:26;3.10;;;1.30;;
35576;SDS011;21680;52.400;16.920;2023-11-25T10:01:53;3.90;;;1.90;;
35576;SDS011;21680;52.400;16.920;2023-11-25T10:04:19;4.30;;;1.90;;
35576;SDS011;21680;52.400;16.920;2023-11-25T10:06:47;4.60;;;2.00;;
35576;SDS011;21680;52.400;16.920;2023-11-25T10:09:14;3.20;;;1.80;;
35576;SDS011;21680;52.400;16.920;2023-11-25T10:11:40;4.60;;;2.40;;
35576;SDS011;21680;52.400;16.920;2023-11-25T10:14:09;6.40;;;2.20;;
35576;SDS011;21680;52.400;16.920;2023-11-25T10:16:39;10.40;;;2.50;;
35576;SDS011;21680;52.400;16.920;2023-11-25T10:21:45;5.20;;;2.00;;
35576;SDS011;21680;52.400;16.920;2023-11-25T10:24:12;4.40;;;2.00;;
35576;SDS011;21680;52.400;16.920;2023-11-25T10:26:39;3.80;;;1.60;;
35576;SDS011;21680;52.400;16.920;2023-11-25T10:29:05;9.50;;;2.20;;
35576;SDS011;21680;52.400;16.920;2023-11-25T10:31:32;8.30;;;2.30;;
35576;SDS011;21680;52.400;16.920;2023-11-25T10:33:58;8.50;;;2.50;;
35576;SDS011;21680;52.400;16.920;2023-11-25T10:36:25;5.10;;;2.30;;
35576;SDS011;21680;52.400;16.920;2023-11-25T10:38:50;4.50;;;2.30;;
35576;SDS011;21680;52.400;16.920;2023-11-25T10:41:18;6.10;;;2.30;;
35576;SDS011;21680;52.400;16.920;2023-11-25T10:43:44;4.60;;;1.80;;
35576;SDS011;21680;52.400;16.920;2023-11-25T10:46:10;8.90;;;2.40;;
35576;SDS011;21680;52.400;16.920;2023-11-25T10:48:38;13.00;;;5.00;;
35576;SDS011;21680;52.400;16.920;2023-11-25T10:51:05;5.50;;;2.10;;
35576;SDS011;21680;52.400;16.920;2023-11-25T10:53:33;8.00;;;2.60;;
35576;SDS011;21680;52.400;16.920;2023-11-25T10:56:04;4.60;;;2.10;;
35576;SDS011;21680;52.400;16.920;2023-11-25T10:58:30;5.90;;;2.60;;
35576;SDS011;21680;52.400;16.920;2023-11-25T11:00:56;4.60;;;2.30;;
35576;SDS011;21680;52.400;16.920;2023-11-25T11:03:36;3.60;;;2.20;;
35576;SDS011;21680;52.400;16.920;2023-11-25T11:06:06;9.10;;;3.70;;
35576;SDS011;21680;52.400;16.920;2023-11-25T11:08:38;9.90;;;2.80;;
35576;SDS011;21680;52.400;16.920;2023-11-25T11:11:14;8.40;;;3.60;;
35576;SDS011;21680;52.400;16.920;2023-11-25T11:13:42;6.50;;;2.20;;
35576;SDS011;21680;52.400;16.920;2023-11-25T11:16:17;8.30;;;3.00;;
35576;SDS011;21680;52.400;16.920;2023-11-25T11:18:52;5.00;;;2.60;;
35576;SDS011;21680;52.400;16.920;2023-11-25T11:21:17;10.30;;;3.60;;
35576;SDS011;21680;52.400;16.920;2023-11-25T11:23:44;4.90;;;2.70;;
35576;SDS011;21680;52.400;16.920;2023-11-25T11:29:07;14.10;;;5.20;;
35576;SDS011;21680;52.400;16.920;2023-11-25T11:34:09;11.00;;;4.00;;
35576;SDS011;21680;52.400;16.920;2023-11-25T11:36:35;9.10;;;4.00;;
35576;SDS011;21680;52.400;16.920;2023-11-25T11:39:00;11.00;;;4.30;;
35576;SDS011;21680;52.400;16.920;2023-11-25T11:41:26;8.20;;;3.80;;
35576;SDS011;21680;52.400;16.920;2023-11-25T11:44:04;16.00;;;4.60;;
35576;SDS011;21680;52.400;16.920;2023-11-25T11:46:32;8.60;;;3.80;;
35576;SDS011;21680;52.400;16.920;2023-11-25T11:49:08;10.20;;;4.00;;
35576;SDS011;21680;52.400;16.920;2023-11-25T11:54:27;8.20;;;3.60;;
35576;SDS011;21680;52.400;16.920;2023-11-25T11:57:03;8.40;;;3.40;;
35576;SDS011;21680;52.400;16.920;2023-11-25T12:02:36;11.90;;;3.20;;
35576;SDS011;21680;52.400;16.920;2023-11-25T12:05:14;9.80;;;3.00;;
35576;SDS011;21680;52.400;16.920;2023-11-25T12:07:40;8.50;;;3.20;;
35576;SDS011;21680;52.400;16.920;2023-11-25T12:10:08;4.30;;;2.50;;
35576;SDS011;21680;52.400;16.920;2023-11-25T12:12:41;4.30;;;2.70;;
35576;SDS011;21680;52.400;16.920;2023-11-25T12:15:07;8.00;;;3.30;;
35576;SDS011;21680;52.400;16.920;2023-11-25T12:17:33;6.10;;;2.80;;
35576;SDS011;21680;52.400;16.920;2023-11-25T12:19:59;9.60;;;3.70;;
35576;SDS011;21680;52.400;16.920;2023-11-25T12:22:25;8.20;;;2.90;;
35576;SDS011;21680;52.400;16.920;2023-11-25T12:24:51;9.60;;;3.80;;
35576;SDS011;21680;52.400;16.920;2023-11-25T12:27:17;7.40;;;3.20;;
35576;SDS011;21680;52.400;16.920;2023-11-25T12:29:46;7.60;;;3.40;;
35576;SDS011;21680;52.400;16.920;2023-11-25T12:32:12;10.30;;;3.80;;
35576;SDS011;21680;52.400;16.920;2023-11-25T12:34:38;9.70;;;3.60;;
35576;SDS011;21680;52.400;16.920;2023-11-25T12:37:03;14.10;;;4.50;;
35576;SDS011;21680;52.400;16.920;2023-11-25T12:39:28;12.40;;;4.00;;
35576;SDS011;21680;52.400;16.920;2023-11-25T12:41:54;8.70;;;3.80;;
35576;SDS011;21680;52.400;16.920;2023-11-25T12:44:20;10.50;;;4.80;;
35576;SDS011;21680;52.400;16.920;2023-11-25T12:47:03;8.90;;;3.40;;
35576;SDS011;21680;52.400;16.920;2023-11-25T12:49:31;10.50;;;4.30;;
35576;SDS011;21680;52.400;16.920;2023-11-25T12:51:56;12.50;;;4.10;;
35576;SDS011;21680;52.400;16.920;2023-11-25T12:54:22;8.40;;;4.00;;
35576;SDS011;21680;52.400;16.920;2023-11-25T13:03:32;10.90;;;3.70;;
35576;SDS011;21680;52.400;16.920;2023-11-25T13:06:02;8.80;;;4.00;;
35576;SDS011;21680;52.400;16.920;2023-11-25T13:08:31;9.00;;;3.30;;
35576;SDS011;21680;52.400;16.920;2023-11-25T13:11:05;8.50;;;3.60;;
35576;SDS011;21680;52.400;16.920;2023-11-25T13:13:38;9.70;;;4.60;;
35576;SDS011;21680;52.400;16.920;2023-11-25T13:16:07;14.30;;;4.00;;
35576;SDS011;21680;52.400;16.920;2023-11-25T13:18:35;12.30;;;3.60;;
35576;SDS011;21680;52.400;16.920;2023-11-25T13:21:01;10.10;;;3.90;;
35576;SDS011;21680;52.400;16.920;2023-11-25T13:23:32;9.60;;;4.10;;
35576;SDS011;21680;52.400;16.920;2023-11-25T13:25:58;13.20;;;3.80;;
35576;SDS011;21680;52.400;16.920;2023-11-25T13:28:23;12.10;;;4.10;;
35576;SDS011;21680;52.400;16.920;2023-11-25T13:30:50;11.00;;;4.00;;
35576;SDS011;21680;52.400;16.920;2023-11-25T13:33:16;11.30;;;4.20;;
35576;SDS011;21680;52.400;16.920;2023-11-25T13:35:42;17.20;;;4.40;;
35576;SDS011;21680;52.400;16.920;2023-11-25T13:38:11;9.40;;;3.50;;
35576;SDS011;21680;52.400;16.920;2023-11-25T13:40:37;10.70;;;4.90;;
35576;SDS011;21680;52.400;16.920;2023-11-25T13:43:06;10.80;;;3.40;;
35576;SDS011;21680;52.400;16.920;2023-11-25T13:45:32;7.20;;;2.90;;
35576;SDS011;21680;52.400;16.920;2023-11-25T13:47:58;8.00;;;2.60;;
35576;SDS011;21680;52.400;16.920;2023-11-25T13:50:26;9.10;;;2.80;;
35576;SDS011;21680;52.400;16.920;2023-11-25T13:52:52;9.90;;;3.20;;
35576;SDS011;21680;52.400;16.920;2023-11-25T13:55:18;7.20;;;4.30;;
35576;SDS011;21680;52.400;16.920;2023-11-25T13:57:45;14.40;;;3.30;;
35576;SDS011;21680;52.400;16.920;2023-11-25T14:00:20;10.50;;;3.70;;
35576;SDS011;21680;52.400;16.920;2023-11-25T14:02:50;9.40;;;3.20;;
35576;SDS011;21680;52.400;16.920;2023-11-25T14:05:15;15.30;;;3.90;;
35576;SDS011;21680;52.400;16.920;2023-11-25T14:07:41;10.30;;;3.70;;
35576;SDS011;21680;52.400;16.920;2023-11-25T14:10:07;10.50;;;3.90;;
35576;SDS011;21680;52.400;16.920;2023-11-25T14:12:34;9.80;;;3.30;;
35576;SDS011;21680;52.400;16.920;2023-11-25T14:15:01;10.60;;;3.10;;
35576;SDS011;21680;52.400;16.920;2023-11-25T14:17:29;7.10;;;3.50;;
35576;SDS011;21680;52.400;16.920;2023-11-25T14:19:56;12.80;;;3.30;;
35576;SDS011;21680;52.400;16.920;2023-11-25T14:22:23;9.60;;;3.10;;
35576;SDS011;21680;52.400;16.920;2023-11-25T14:24:48;9.00;;;3.10;;
35576;SDS011;21680;52.400;16.920;2023-11-25T14:27:15;9.20;;;3.00;;
35576;SDS011;21680;52.400;16.920;2023-11-25T14:29:40;8.30;;;4.00;;
35576;SDS011;21680;52.400;16.920;2023-11-25T14:32:09;12.30;;;4.20;;
35576;SDS011;21680;52.400;16.920;2023-11-25T14:34:36;14.40;;;3.70;;
35576;SDS011;21680;52.400;16.920;2023-11-25T14:37:01;15.30;;;4.50;;
35576;SDS011;21680;52.400;16.920;2023-11-25T14:39:28;12.60;;;4.30;;
35576;SDS011;21680;52.400;16.920;2023-11-25T14:42:01;14.00;;;4.10;;
35576;SDS011;21680;52.400;16.920;2023-11-25T14:44:27;18.10;;;5.20;;
35576;SDS011;21680;52.400;16.920;2023-11-25T14:46:54;16.80;;;4.30;;
35576;SDS011;21680;52.400;16.920;2023-11-25T14:49:20;14.80;;;4.00;;